Calgary, Canada
Current Conditions -  °F | °C
As of 1:00 PM on Monday 26 Jan 2015 (Local Time) from CYYC Reporting Station
Broken Clouds Broken Clouds  
Wind Chill: 52°   Ceiling: 30000
Heat Index: 52°   Visibility: 40mi
Dew Point: 32°   Wind: 6mph
Humidity: 47%   Direction: 200°SSW
Pressure: 29.81"   Gusts: NA
Location:  51.05°N, 114.06°W
Report Text: CYYC 262000Z 20005KT 40SM FEW150 BKN300 11/M00 A2981 RMK AC2CI5 SLP109 DENSITY ALT 4100FT
Loading
Personal Weather Stations






























Interactive Weather Map New forecast layout! Learn more

10-Day Weather Forecast

Advertisements
Track Severe Weather on mobile